sensor_id;sensor_type;location;lat;lon;timestamp;temperature;humidity
43858;DHT22;29507;51.284;5.758;2023-05-18T00:02:03;6.20;99.90
43858;DHT22;29507;51.284;5.758;2023-05-18T00:04:29;6.10;99.90
43858;DHT22;29507;51.284;5.758;2023-05-18T00:06:56;6.10;99.90
43858;DHT22;29507;51.284;5.758;2023-05-18T00:09:23;6.10;99.90
43858;DHT22;29507;51.284;5.758;2023-05-18T00:11:50;6.00;99.90
43858;DHT22;29507;51.284;5.758;2023-05-18T00:14:15;6.10;99.90
43858;DHT22;29507;51.284;5.758;2023-05-18T00:16:41;6.00;99.90
43858;DHT22;29507;51.284;5.758;2023-05-18T00:19:06;5.90;99.90
43858;DHT22;29507;51.284;5.758;2023-05-18T00:21:33;5.90;99.90
43858;DHT22;29507;51.284;5.758;2023-05-18T00:23:59;5.80;99.90
43858;DHT22;29507;51.284;5.758;2023-05-18T00:26:25;5.80;99.90
43858;DHT22;29507;51.284;5.758;2023-05-18T00:28:51;5.80;99.90
43858;DHT22;29507;51.284;5.758;2023-05-18T00:31:17;5.80;99.90
43858;DHT22;29507;51.284;5.758;2023-05-18T00:33:43;5.80;99.90
43858;DHT22;29507;51.284;5.758;2023-05-18T00:36:10;5.90;99.90
43858;DHT22;29507;51.284;5.758;2023-05-18T00:38:35;5.90;99.90
43858;DHT22;29507;51.284;5.758;2023-05-18T00:41:01;5.80;99.90
43858;DHT22;29507;51.284;5.758;2023-05-18T00:43:27;5.70;99.90
43858;DHT22;29507;51.284;5.758;2023-05-18T00:45:52;5.70;99.90
43858;DHT22;29507;51.284;5.758;2023-05-18T00:48:18;5.60;99.90
43858;DHT22;29507;51.284;5.758;2023-05-18T00:50:44;5.50;99.90
43858;DHT22;29507;51.284;5.758;2023-05-18T00:53:09;5.50;99.90
43858;DHT22;29507;51.284;5.758;2023-05-18T00:55:35;5.50;99.90
43858;DHT22;29507;51.284;5.758;2023-05-18T00:58:01;5.50;99.90
43858;DHT22;29507;51.284;5.758;2023-05-18T01:00:27;5.50;99.90
43858;DHT22;29507;51.284;5.758;2023-05-18T01:02:53;5.40;99.90
43858;DHT22;29507;51.284;5.758;2023-05-18T01:05:19;5.40;99.90
43858;DHT22;29507;51.284;5.758;2023-05-18T01:07:47;5.30;99.90
43858;DHT22;29507;51.284;5.758;2023-05-18T01:10:14;5.30;99.90
43858;DHT22;29507;51.284;5.758;2023-05-18T01:12:52;5.30;99.90
43858;DHT22;29507;51.284;5.758;2023-05-18T01:15:24;5.30;99.90
43858;DHT22;29507;51.284;5.758;2023-05-18T01:25:48;5.30;99.90
43858;DHT22;29507;51.284;5.758;2023-05-18T01:28:17;5.20;99.90
43858;DHT22;29507;51.284;5.758;2023-05-18T01:30:44;5.20;99.90
43858;DHT22;29507;51.284;5.758;2023-05-18T01:33:11;5.20;99.90
43858;DHT22;29507;51.284;5.758;2023-05-18T01:35:37;5.20;99.90
43858;DHT22;29507;51.284;5.758;2023-05-18T01:38:06;5.10;99.90
43858;DHT22;29507;51.284;5.758;2023-05-18T01:40:37;5.10;99.90
43858;DHT22;29507;51.284;5.758;2023-05-18T01:43:10;5.20;99.90
43858;DHT22;29507;51.284;5.758;2023-05-18T01:45:43;5.10;99.90
43858;DHT22;29507;51.284;5.758;2023-05-18T01:48:17;5.00;99.90
43858;DHT22;29507;51.284;5.758;2023-05-18T01:50:46;5.00;99.90
43858;DHT22;29507;51.284;5.758;2023-05-18T01:55:41;4.90;99.90
43858;DHT22;29507;51.284;5.758;2023-05-18T01:58:09;4.90;99.90
43858;DHT22;29507;51.284;5.758;2023-05-18T02:00:35;4.90;99.90
43858;DHT22;29507;51.284;5.758;2023-05-18T02:03:01;4.90;99.90
43858;DHT22;29507;51.284;5.758;2023-05-18T02:05:27;4.90;99.90
43858;DHT22;29507;51.284;5.758;2023-05-18T02:07:52;4.80;99.90
43858;DHT22;29507;51.284;5.758;2023-05-18T02:10:18;4.90;99.90
43858;DHT22;29507;51.284;5.758;2023-05-18T02:12:43;4.80;99.90
43858;DHT22;29507;51.284;5.758;2023-05-18T02:15:13;4.70;99.90
43858;DHT22;29507;51.284;5.758;2023-05-18T02:17:38;4.70;99.90
43858;DHT22;29507;51.284;5.758;2023-05-18T02:20:05;4.70;99.90
43858;DHT22;29507;51.284;5.758;2023-05-18T02:22:34;4.70;99.90
43858;DHT22;29507;51.284;5.758;2023-05-18T02:25:00;4.60;99.90
43858;DHT22;29507;51.284;5.758;2023-05-18T02:27:26;4.60;99.90
43858;DHT22;29507;51.284;5.758;2023-05-18T02:29:52;4.50;99.90
43858;DHT22;29507;51.284;5.758;2023-05-18T02:32:18;4.50;99.90
43858;DHT22;29507;51.284;5.758;2023-05-18T02:34:44;4.40;99.90
43858;DHT22;29507;51.284;5.758;2023-05-18T02:37:10;4.40;99.90
43858;DHT22;29507;51.284;5.758;2023-05-18T02:39:38;4.40;99.90
43858;DHT22;29507;51.284;5.758;2023-05-18T02:42:03;4.30;99.90
43858;DHT22;29507;51.284;5.758;2023-05-18T02:44:29;4.30;99.90
43858;DHT22;29507;51.284;5.758;2023-05-18T02:46:55;4.30;99.90
43858;DHT22;29507;51.284;5.758;2023-05-18T02:49:21;4.30;99.90
43858;DHT22;29507;51.284;5.758;2023-05-18T02:51:46;4.40;99.90
43858;DHT22;29507;51.284;5.758;2023-05-18T02:54:12;4.30;99.90
43858;DHT22;29507;51.284;5.758;2023-05-18T02:56:37;4.40;99.90
43858;DHT22;29507;51.284;5.758;2023-05-18T02:59:05;4.30;99.90
43858;DHT22;29507;51.284;5.758;2023-05-18T03:01:31;4.40;99.90
43858;DHT22;29507;51.284;5.758;2023-05-18T03:03:59;4.40;99.90
43858;DHT22;29507;51.284;5.758;2023-05-18T03:06:25;4.40;99.90
43858;DHT22;29507;51.284;5.758;2023-05-18T03:08:54;4.30;99.90
43858;DHT22;29507;51.284;5.758;2023-05-18T03:11:20;4.40;99.90
43858;DHT22;29507;51.284;5.758;2023-05-18T03:13:47;4.30;99.90
43858;DHT22;29507;51.284;5.758;2023-05-18T03:16:13;4.30;99.90
43858;DHT22;29507;51.284;5.758;2023-05-18T03:18:38;4.30;99.90
43858;DHT22;29507;51.284;5.758;2023-05-18T03:21:04;4.30;99.90
43858;DHT22;29507;51.284;5.758;2023-05-18T03:23:30;4.30;99.90
43858;DHT22;29507;51.284;5.758;2023-05-18T03:25:56;4.40;99.90
43858;DHT22;29507;51.284;5.758;2023-05-18T03:28:21;4.40;99.90
43858;DHT22;29507;51.284;5.758;2023-05-18T03:30:47;4.50;99.90
43858;DHT22;29507;51.284;5.758;2023-05-18T03:33:13;4.50;99.90
43858;DHT22;29507;51.284;5.758;2023-05-18T03:35:39;4.50;99.90
43858;DHT22;29507;51.284;5.758;2023-05-18T03:38:05;4.50;99.90
43858;DHT22;29507;51.284;5.758;2023-05-18T03:40:31;4.50;99.90
43858;DHT22;29507;51.284;5.758;2023-05-18T03:42:57;4.40;99.90
43858;DHT22;29507;51.284;5.758;2023-05-18T03:45:23;4.40;99.90
43858;DHT22;29507;51.284;5.758;2023-05-18T03:47:49;4.40;99.90
43858;DHT22;29507;51.284;5.758;2023-05-18T03:50:15;4.40;99.90
43858;DHT22;29507;51.284;5.758;2023-05-18T03:52:42;4.40;99.90
43858;DHT22;29507;51.284;5.758;2023-05-18T03:55:09;4.40;99.90
43858;DHT22;29507;51.284;5.758;2023-05-18T03:57:34;4.50;99.90
43858;DHT22;29507;51.284;5.758;2023-05-18T04:00:01;4.50;99.90
43858;DHT22;29507;51.284;5.758;2023-05-18T04:02:31;4.60;99.90
43858;DHT22;29507;51.284;5.758;2023-05-18T04:04:57;4.60;99.90
43858;DHT22;29507;51.284;5.758;2023-05-18T04:07:23;4.70;99.90
43858;DHT22;29507;51.284;5.758;2023-05-18T04:09:52;4.70;99.90
43858;DHT22;29507;51.284;5.758;2023-05-18T04:12:18;4.80;99.90
43858;DHT22;29507;51.284;5.758;2023-05-18T04:14:43;4.80;99.90
43858;DHT22;29507;51.284;5.758;2023-05-18T04:17:17;4.90;99.90
43858;DHT22;29507;51.284;5.758;2023-05-18T04:19:46;5.00;99.90
43858;DHT22;29507;51.284;5.758;2023-05-18T04:22:12;5.10;99.90
43858;DHT22;29507;51.284;5.758;2023-05-18T04:24:37;5.20;99.90
43858;DHT22;29507;51.284;5.758;2023-05-18T04:27:05;5.20;99.90
43858;DHT22;29507;51.284;5.758;2023-05-18T04:29:31;5.30;99.90
43858;DHT22;29507;51.284;5.758;2023-05-18T04:31:56;5.30;99.90
43858;DHT22;29507;51.284;5.758;2023-05-18T04:34:28;5.30;99.90
43858;DHT22;29507;51.284;5.758;2023-05-18T04:36:55;5.40;99.90
43858;DHT22;29507;51.284;5.758;2023-05-18T04:39:23;5.50;99.90
43858;DHT22;29507;51.284;5.758;2023-05-18T04:41:53;5.50;99.90
43858;DHT22;29507;51.284;5.758;2023-05-18T04:44:26;5.60;99.90
43858;DHT22;29507;51.284;5.758;2023-05-18T04:46:53;5.70;99.90
43858;DHT22;29507;51.284;5.758;2023-05-18T04:49:19;5.70;99.90
43858;DHT22;29507;51.284;5.758;2023-05-18T04:51:48;5.80;99.90
43858;DHT22;29507;51.284;5.758;2023-05-18T04:54:14;5.90;99.90
43858;DHT22;29507;51.284;5.758;2023-05-18T04:56:41;6.00;99.90
43858;DHT22;29507;51.284;5.758;2023-05-18T04:59:08;6.10;99.90
43858;DHT22;29507;51.284;5.758;2023-05-18T05:01:33;6.20;99.90
43858;DHT22;29507;51.284;5.758;2023-05-18T05:03:59;6.30;99.90
43858;DHT22;29507;51.284;5.758;2023-05-18T05:06:25;6.30;99.90
43858;DHT22;29507;51.284;5.758;2023-05-18T05:08:50;6.40;99.90
43858;DHT22;29507;51.284;5.758;2023-05-18T05:11:16;6.50;99.90
43858;DHT22;29507;51.284;5.758;2023-05-18T05:13:42;6.60;99.90
43858;DHT22;29507;51.284;5.758;2023-05-18T05:16:07;6.70;99.90
43858;DHT22;29507;51.284;5.758;2023-05-18T05:18:33;6.80;99.90
43858;DHT22;29507;51.284;5.758;2023-05-18T05:20:58;6.80;99.90
43858;DHT22;29507;51.284;5.758;2023-05-18T05:23:24;6.90;99.90
43858;DHT22;29507;51.284;5.758;2023-05-18T05:25:50;7.00;99.90
43858;DHT22;29507;51.284;5.758;2023-05-18T05:28:15;7.10;99.90
43858;DHT22;29507;51.284;5.758;2023-05-18T05:30:41;7.10;99.90
43858;DHT22;29507;51.284;5.758;2023-05-18T05:33:07;7.20;99.90
43858;DHT22;29507;51.284;5.758;2023-05-18T05:35:32;7.30;99.90
43858;DHT22;29507;51.284;5.758;2023-05-18T05:37:58;7.40;99.90
43858;DHT22;29507;51.284;5.758;2023-05-18T05:40:23;7.40;99.90
43858;DHT22;29507;51.284;5.758;2023-05-18T05:42:49;7.50;99.90
43858;DHT22;29507;51.284;5.758;2023-05-18T05:45:15;7.60;99.90
43858;DHT22;29507;51.284;5.758;2023-05-18T05:47:40;7.80;99.90
43858;DHT22;29507;51.284;5.758;2023-05-18T05:50:06;8.00;99.90
43858;DHT22;29507;51.284;5.758;2023-05-18T05:52:32;8.10;99.90
43858;DHT22;29507;51.284;5.758;2023-05-18T05:54:57;8.30;99.90
43858;DHT22;29507;51.284;5.758;2023-05-18T05:57:23;8.50;99.90
43858;DHT22;29507;51.284;5.758;2023-05-18T05:59:50;8.90;99.90
43858;DHT22;29507;51.284;5.758;2023-05-18T06:02:15;9.30;99.90
43858;DHT22;29507;51.284;5.758;2023-05-18T06:04:41;9.70;99.90
43858;DHT22;29507;51.284;5.758;2023-05-18T06:07:07;9.90;99.90
43858;DHT22;29507;51.284;5.758;2023-05-18T06:09:33;9.90;99.90
43858;DHT22;29507;51.284;5.758;2023-05-18T06:11:58;9.90;99.90
43858;DHT22;29507;51.284;5.758;2023-05-18T06:14:24;10.20;99.90
43858;DHT22;29507;51.284;5.758;2023-05-18T06:16:50;10.30;99.90
43858;DHT22;29507;51.284;5.758;2023-05-18T06:19:16;10.40;99.90
43858;DHT22;29507;51.284;5.758;2023-05-18T06:21:41;10.70;99.90
43858;DHT22;29507;51.284;5.758;2023-05-18T06:24:07;11.10;99.90
43858;DHT22;29507;51.284;5.758;2023-05-18T06:26:33;11.30;99.90
43858;DHT22;29507;51.284;5.758;2023-05-18T06:28:58;11.50;99.90
43858;DHT22;29507;51.284;5.758;2023-05-18T06:31:24;11.70;99.90
43858;DHT22;29507;51.284;5.758;2023-05-18T06:33:50;12.00;99.90
43858;DHT22;29507;51.284;5.758;2023-05-18T06:36:15;12.10;99.90
43858;DHT22;29507;51.284;5.758;2023-05-18T06:38:41;12.20;99.90
43858;DHT22;29507;51.284;5.758;2023-05-18T06:41:07;12.40;99.90
43858;DHT22;29507;51.284;5.758;2023-05-18T06:43:32;12.50;99.90
43858;DHT22;29507;51.284;5.758;2023-05-18T06:45:58;12.60;99.90
43858;DHT22;29507;51.284;5.758;2023-05-18T06:48:25;12.80;99.90
43858;DHT22;29507;51.284;5.758;2023-05-18T06:50:51;12.90;99.90
43858;DHT22;29507;51.284;5.758;2023-05-18T06:53:17;13.10;99.80
43858;DHT22;29507;51.284;5.758;2023-05-18T06:55:42;13.20;98.80
43858;DHT22;29507;51.284;5.758;2023-05-18T06:58:08;13.30;99.20
43858;DHT22;29507;51.284;5.758;2023-05-18T07:00:34;13.80;98.00
43858;DHT22;29507;51.284;5.758;2023-05-18T07:02:59;14.10;97.60
43858;DHT22;29507;51.284;5.758;2023-05-18T07:05:26;14.60;96.40
43858;DHT22;29507;51.284;5.758;2023-05-18T07:07:52;15.10;95.10
43858;DHT22;29507;51.284;5.758;2023-05-18T07:10:17;15.40;94.20
43858;DHT22;29507;51.284;5.758;2023-05-18T07:12:43;15.30;93.40
43858;DHT22;29507;51.284;5.758;2023-05-18T07:15:09;15.30;92.80
43858;DHT22;29507;51.284;5.758;2023-05-18T07:17:36;15.10;92.60
43858;DHT22;29507;51.284;5.758;2023-05-18T07:20:02;14.90;92.80
43858;DHT22;29507;51.284;5.758;2023-05-18T07:22:30;15.00;92.50
43858;DHT22;29507;51.284;5.758;2023-05-18T07:24:55;15.40;92.30
43858;DHT22;29507;51.284;5.758;2023-05-18T07:27:22;15.60;91.70
43858;DHT22;29507;51.284;5.758;2023-05-18T07:29:48;15.60;91.30
43858;DHT22;29507;51.284;5.758;2023-05-18T07:32:14;15.60;90.60
43858;DHT22;29507;51.284;5.758;2023-05-18T07:34:39;15.50;90.80
43858;DHT22;29507;51.284;5.758;2023-05-18T07:37:08;15.60;90.80
43858;DHT22;29507;51.284;5.758;2023-05-18T07:39:33;15.70;90.70
43858;DHT22;29507;51.284;5.758;2023-05-18T07:42:00;16.00;90.00
43858;DHT22;29507;51.284;5.758;2023-05-18T07:44:26;15.90;89.30
43858;DHT22;29507;51.284;5.758;2023-05-18T07:46:52;15.80;89.20
43858;DHT22;29507;51.284;5.758;2023-05-18T07:49:17;15.80;89.10
43858;DHT22;29507;51.284;5.758;2023-05-18T07:51:43;15.80;89.00
43858;DHT22;29507;51.284;5.758;2023-05-18T07:54:08;15.70;89.10
43858;DHT22;29507;51.284;5.758;2023-05-18T07:56:34;15.90;88.50
43858;DHT22;29507;51.284;5.758;2023-05-18T07:59:00;16.20;88.50
43858;DHT22;29507;51.284;5.758;2023-05-18T08:01:26;16.50;88.50
43858;DHT22;29507;51.284;5.758;2023-05-18T08:03:55;16.70;85.40
43858;DHT22;29507;51.284;5.758;2023-05-18T08:06:21;16.90;85.80
43858;DHT22;29507;51.284;5.758;2023-05-18T08:08:46;17.10;84.40
43858;DHT22;29507;51.284;5.758;2023-05-18T08:11:12;17.50;84.70
43858;DHT22;29507;51.284;5.758;2023-05-18T08:13:38;17.90;83.40
43858;DHT22;29507;51.284;5.758;2023-05-18T08:16:04;18.00;81.80
43858;DHT22;29507;51.284;5.758;2023-05-18T08:18:30;18.20;80.90
43858;DHT22;29507;51.284;5.758;2023-05-18T08:20:55;17.90;80.00
43858;DHT22;29507;51.284;5.758;2023-05-18T08:23:23;18.00;82.60
43858;DHT22;29507;51.284;5.758;2023-05-18T08:25:48;18.40;80.10
43858;DHT22;29507;51.284;5.758;2023-05-18T08:28:14;18.40;78.40
43858;DHT22;29507;51.284;5.758;2023-05-18T08:30:40;18.20;78.80
43858;DHT22;29507;51.284;5.758;2023-05-18T08:33:06;18.20;78.00
43858;DHT22;29507;51.284;5.758;2023-05-18T08:35:32;18.20;78.40
43858;DHT22;29507;51.284;5.758;2023-05-18T08:37:57;18.10;77.40
43858;DHT22;29507;51.284;5.758;2023-05-18T08:40:53;17.80;77.40
43858;DHT22;29507;51.284;5.758;2023-05-18T08:43:21;17.50;78.10
43858;DHT22;29507;51.284;5.758;2023-05-18T08:46:00;17.30;78.10
43858;DHT22;29507;51.284;5.758;2023-05-18T08:48:30;17.10;78.00
43858;DHT22;29507;51.284;5.758;2023-05-18T08:50:57;17.00;77.10
43858;DHT22;29507;51.284;5.758;2023-05-18T08:53:24;17.30;76.90
43858;DHT22;29507;51.284;5.758;2023-05-18T08:55:52;17.20;77.80
43858;DHT22;29507;51.284;5.758;2023-05-18T08:58:19;17.10;78.40
43858;DHT22;29507;51.284;5.758;2023-05-18T09:00:45;17.30;80.20
43858;DHT22;29507;51.284;5.758;2023-05-18T09:03:11;17.50;78.10
43858;DHT22;29507;51.284;5.758;2023-05-18T09:05:40;17.70;74.50
43858;DHT22;29507;51.284;5.758;2023-05-18T09:08:06;18.20;74.10
43858;DHT22;29507;51.284;5.758;2023-05-18T09:10:34;18.60;74.00
43858;DHT22;29507;51.284;5.758;2023-05-18T09:13:00;18.70;71.90
43858;DHT22;29507;51.284;5.758;2023-05-18T09:15:27;18.60;71.20
43858;DHT22;29507;51.284;5.758;2023-05-18T09:17:53;18.70;69.60
43858;DHT22;29507;51.284;5.758;2023-05-18T09:20:19;18.90;70.40
43858;DHT22;29507;51.284;5.758;2023-05-18T09:22:45;19.20;69.10
43858;DHT22;29507;51.284;5.758;2023-05-18T09:25:15;19.00;68.20
43858;DHT22;29507;51.284;5.758;2023-05-18T09:27:42;18.80;68.40
43858;DHT22;29507;51.284;5.758;2023-05-18T09:30:09;19.20;69.80
43858;DHT22;29507;51.284;5.758;2023-05-18T09:32:35;19.40;69.00
43858;DHT22;29507;51.284;5.758;2023-05-18T09:35:06;19.70;67.80
43858;DHT22;29507;51.284;5.758;2023-05-18T09:37:32;20.00;66.50
43858;DHT22;29507;51.284;5.758;2023-05-18T09:42:43;19.20;67.60
43858;DHT22;29507;51.284;5.758;2023-05-18T09:45:18;18.80;68.40
43858;DHT22;29507;51.284;5.758;2023-05-18T09:47:44;18.70;68.50
43858;DHT22;29507;51.284;5.758;2023-05-18T09:50:09;18.80;68.10
43858;DHT22;29507;51.284;5.758;2023-05-18T09:52:42;18.90;69.30
43858;DHT22;29507;51.284;5.758;2023-05-18T09:55:09;19.60;68.00
43858;DHT22;29507;51.284;5.758;2023-05-18T09:57:41;19.90;68.20
43858;DHT22;29507;51.284;5.758;2023-05-18T10:00:07;20.50;66.40
43858;DHT22;29507;51.284;5.758;2023-05-18T10:02:38;19.90;64.50
43858;DHT22;29507;51.284;5.758;2023-05-18T10:05:06;18.70;67.50
43858;DHT22;29507;51.284;5.758;2023-05-18T10:07:33;17.90;69.40
43858;DHT22;29507;51.284;5.758;2023-05-18T10:10:01;18.60;68.70
43858;DHT22;29507;51.284;5.758;2023-05-18T10:12:28;19.20;67.60
43858;DHT22;29507;51.284;5.758;2023-05-18T10:14:53;19.60;65.70
43858;DHT22;29507;51.284;5.758;2023-05-18T10:17:20;19.60;65.50
43858;DHT22;29507;51.284;5.758;2023-05-18T10:19:49;19.70;65.10
43858;DHT22;29507;51.284;5.758;2023-05-18T10:22:17;19.80;65.00
43858;DHT22;29507;51.284;5.758;2023-05-18T10:24:49;20.00;64.70
43858;DHT22;29507;51.284;5.758;2023-05-18T10:27:21;20.00;64.20
43858;DHT22;29507;51.284;5.758;2023-05-18T10:29:49;20.00;64.70
43858;DHT22;29507;51.284;5.758;2023-05-18T10:32:16;20.20;67.30
43858;DHT22;29507;51.284;5.758;2023-05-18T10:34:45;20.30;65.00
43858;DHT22;29507;51.284;5.758;2023-05-18T10:37:13;20.20;65.30
43858;DHT22;29507;51.284;5.758;2023-05-18T10:39:41;19.60;65.10
43858;DHT22;29507;51.284;5.758;2023-05-18T10:42:09;19.70;64.60
43858;DHT22;29507;51.284;5.758;2023-05-18T10:44:36;19.80;65.70
43858;DHT22;29507;51.284;5.758;2023-05-18T10:47:04;20.20;63.70
43858;DHT22;29507;51.284;5.758;2023-05-18T10:49:31;20.10;63.90
43858;DHT22;29507;51.284;5.758;2023-05-18T10:51:56;20.00;64.70
43858;DHT22;29507;51.284;5.758;2023-05-18T10:54:24;20.10;65.80
43858;DHT22;29507;51.284;5.758;2023-05-18T10:56:51;20.80;64.30
43858;DHT22;29507;51.284;5.758;2023-05-18T10:59:19;21.00;64.40
43858;DHT22;29507;51.284;5.758;2023-05-18T11:01:48;21.30;63.60
43858;DHT22;29507;51.284;5.758;2023-05-18T11:04:14;21.30;62.20
43858;DHT22;29507;51.284;5.758;2023-05-18T11:06:40;21.10;62.70
43858;DHT22;29507;51.284;5.758;2023-05-18T11:09:06;20.80;62.50
43858;DHT22;29507;51.284;5.758;2023-05-18T11:11:52;20.80;62.00
43858;DHT22;29507;51.284;5.758;2023-05-18T11:14:30;20.40;61.10
43858;DHT22;29507;51.284;5.758;2023-05-18T11:17:25;20.50;63.00
43858;DHT22;29507;51.284;5.758;2023-05-18T11:22:51;21.70;62.00
43858;DHT22;29507;51.284;5.758;2023-05-18T11:28:03;22.30;60.60
43858;DHT22;29507;51.284;5.758;2023-05-18T11:33:12;22.00;59.10
43858;DHT22;29507;51.284;5.758;2023-05-18T11:36:12;21.80;60.00
43858;DHT22;29507;51.284;5.758;2023-05-18T11:38:53;21.70;60.70
43858;DHT22;29507;51.284;5.758;2023-05-18T11:41:32;21.30;60.70
43858;DHT22;29507;51.284;5.758;2023-05-18T11:46:36;22.20;60.70
43858;DHT22;29507;51.284;5.758;2023-05-18T11:49:08;22.70;62.80
43858;DHT22;29507;51.284;5.758;2023-05-18T11:51:55;23.00;59.00
43858;DHT22;29507;51.284;5.758;2023-05-18T11:54:25;22.40;59.30
43858;DHT22;29507;51.284;5.758;2023-05-18T11:56:53;22.00;59.80
43858;DHT22;29507;51.284;5.758;2023-05-18T11:59:35;22.00;60.50
43858;DHT22;29507;51.284;5.758;2023-05-18T12:02:02;22.40;59.50
43858;DHT22;29507;51.284;5.758;2023-05-18T12:04:29;22.20;59.60
43858;DHT22;29507;51.284;5.758;2023-05-18T12:06:56;22.00;60.10
43858;DHT22;29507;51.284;5.758;2023-05-18T12:09:23;21.60;59.60
43858;DHT22;29507;51.284;5.758;2023-05-18T12:11:50;21.90;60.60
43858;DHT22;29507;51.284;5.758;2023-05-18T12:14:17;22.90;61.10
43858;DHT22;29507;51.284;5.758;2023-05-18T12:16:44;23.10;59.70
43858;DHT22;29507;51.284;5.758;2023-05-18T12:19:10;23.10;59.50
43858;DHT22;29507;51.284;5.758;2023-05-18T12:21:36;22.00;59.10
43858;DHT22;29507;51.284;5.758;2023-05-18T12:24:02;21.40;60.20
43858;DHT22;29507;51.284;5.758;2023-05-18T12:26:28;21.40;60.00
43858;DHT22;29507;51.284;5.758;2023-05-18T12:28:55;21.70;60.30
43858;DHT22;29507;51.284;5.758;2023-05-18T12:31:21;22.00;60.30
43858;DHT22;29507;51.284;5.758;2023-05-18T12:33:47;22.50;59.50
43858;DHT22;29507;51.284;5.758;2023-05-18T12:36:13;22.80;58.50
43858;DHT22;29507;51.284;5.758;2023-05-18T12:38:39;23.20;59.10
43858;DHT22;29507;51.284;5.758;2023-05-18T12:41:05;23.40;57.40
43858;DHT22;29507;51.284;5.758;2023-05-18T12:43:35;23.40;57.40
43858;DHT22;29507;51.284;5.758;2023-05-18T12:46:02;23.60;57.80
43858;DHT22;29507;51.284;5.758;2023-05-18T12:48:27;23.60;57.30
43858;DHT22;29507;51.284;5.758;2023-05-18T12:50:59;23.60;57.20
43858;DHT22;29507;51.284;5.758;2023-05-18T12:53:25;24.30;58.40
43858;DHT22;29507;51.284;5.758;2023-05-18T12:55:58;24.30;56.70
43858;DHT22;29507;51.284;5.758;2023-05-18T12:58:24;24.10;57.50
43858;DHT22;29507;51.284;5.758;2023-05-18T13:00:50;23.40;57.80
43858;DHT22;29507;51.284;5.758;2023-05-18T13:03:17;23.30;58.60
43858;DHT22;29507;51.284;5.758;2023-05-18T13:05:44;23.40;57.90
43858;DHT22;29507;51.284;5.758;2023-05-18T13:08:14;23.50;55.90
43858;DHT22;29507;51.284;5.758;2023-05-18T13:10:42;23.40;56.00
43858;DHT22;29507;51.284;5.758;2023-05-18T13:13:08;23.10;55.60
43858;DHT22;29507;51.284;5.758;2023-05-18T13:15:37;22.60;57.10
43858;DHT22;29507;51.284;5.758;2023-05-18T13:18:08;22.60;57.40
43858;DHT22;29507;51.284;5.758;2023-05-18T13:20:39;22.20;57.10
43858;DHT22;29507;51.284;5.758;2023-05-18T13:23:13;21.80;59.10
43858;DHT22;29507;51.284;5.758;2023-05-18T13:25:40;21.20;58.00
43858;DHT22;29507;51.284;5.758;2023-05-18T13:28:07;20.90;58.30
43858;DHT22;29507;51.284;5.758;2023-05-18T13:30:35;20.70;59.80
43858;DHT22;29507;51.284;5.758;2023-05-18T13:33:01;20.30;60.60
43858;DHT22;29507;51.284;5.758;2023-05-18T13:35:27;20.30;60.90
43858;DHT22;29507;51.284;5.758;2023-05-18T13:37:52;20.60;60.90
43858;DHT22;29507;51.284;5.758;2023-05-18T13:40:19;20.90;60.30
43858;DHT22;29507;51.284;5.758;2023-05-18T13:42:46;20.90;60.20
43858;DHT22;29507;51.284;5.758;2023-05-18T13:45:12;20.70;59.80
43858;DHT22;29507;51.284;5.758;2023-05-18T13:47:39;20.70;60.20
43858;DHT22;29507;51.284;5.758;2023-05-18T13:50:05;20.70;61.10
43858;DHT22;29507;51.284;5.758;2023-05-18T13:52:32;20.80;60.50
43858;DHT22;29507;51.284;5.758;2023-05-18T13:54:57;21.10;60.70
43858;DHT22;29507;51.284;5.758;2023-05-18T13:57:23;21.10;59.50
43858;DHT22;29507;51.284;5.758;2023-05-18T13:59:51;20.90;59.60
43858;DHT22;29507;51.284;5.758;2023-05-18T14:02:17;20.70;59.50
43858;DHT22;29507;51.284;5.758;2023-05-18T14:04:43;20.50;61.60
43858;DHT22;29507;51.284;5.758;2023-05-18T14:07:09;20.40;60.60
43858;DHT22;29507;51.284;5.758;2023-05-18T14:09:35;20.20;60.60
43858;DHT22;29507;51.284;5.758;2023-05-18T14:12:01;19.90;60.60
43858;DHT22;29507;51.284;5.758;2023-05-18T14:14:29;19.60;61.20
43858;DHT22;29507;51.284;5.758;2023-05-18T14:16:55;19.40;61.40
43858;DHT22;29507;51.284;5.758;2023-05-18T14:19:21;19.30;61.40
43858;DHT22;29507;51.284;5.758;2023-05-18T14:21:46;19.10;62.00
43858;DHT22;29507;51.284;5.758;2023-05-18T14:24:12;19.20;63.70
43858;DHT22;29507;51.284;5.758;2023-05-18T14:26:39;19.20;63.50
43858;DHT22;29507;51.284;5.758;2023-05-18T14:29:05;19.10;64.20
43858;DHT22;29507;51.284;5.758;2023-05-18T14:31:31;18.90;62.50
43858;DHT22;29507;51.284;5.758;2023-05-18T14:33:56;18.80;63.20
43858;DHT22;29507;51.284;5.758;2023-05-18T14:36:22;18.80;63.30
43858;DHT22;29507;51.284;5.758;2023-05-18T14:38:47;18.70;65.20
43858;DHT22;29507;51.284;5.758;2023-05-18T14:41:13;18.60;63.80
43858;DHT22;29507;51.284;5.758;2023-05-18T14:43:39;18.50;64.40
43858;DHT22;29507;51.284;5.758;2023-05-18T14:46:05;18.50;65.50
43858;DHT22;29507;51.284;5.758;2023-05-18T14:48:30;18.50;65.60
43858;DHT22;29507;51.284;5.758;2023-05-18T14:50:56;18.30;65.40
43858;DHT22;29507;51.284;5.758;2023-05-18T14:53:21;18.20;66.30
43858;DHT22;29507;51.284;5.758;2023-05-18T14:55:47;18.30;65.90
43858;DHT22;29507;51.284;5.758;2023-05-18T14:58:12;18.50;66.50
43858;DHT22;29507;51.284;5.758;2023-05-18T15:00:42;18.50;66.50
43858;DHT22;29507;51.284;5.758;2023-05-18T15:03:08;18.50;65.40
43858;DHT22;29507;51.284;5.758;2023-05-18T15:05:34;18.60;65.20
43858;DHT22;29507;51.284;5.758;2023-05-18T15:08:00;18.70;64.60
43858;DHT22;29507;51.284;5.758;2023-05-18T15:10:26;18.60;63.80
43858;DHT22;29507;51.284;5.758;2023-05-18T15:12:51;18.40;65.70
43858;DHT22;29507;51.284;5.758;2023-05-18T15:15:17;18.40;65.50
43858;DHT22;29507;51.284;5.758;2023-05-18T15:17:42;18.30;66.50
43858;DHT22;29507;51.284;5.758;2023-05-18T15:20:09;18.40;66.90
43858;DHT22;29507;51.284;5.758;2023-05-18T15:22:35;18.50;66.80
43858;DHT22;29507;51.284;5.758;2023-05-18T15:25:05;18.50;66.40
43858;DHT22;29507;51.284;5.758;2023-05-18T15:27:32;18.70;66.40
43858;DHT22;29507;51.284;5.758;2023-05-18T15:29:57;18.80;63.60
43858;DHT22;29507;51.284;5.758;2023-05-18T15:32:23;18.80;64.20
43858;DHT22;29507;51.284;5.758;2023-05-18T15:34:49;18.80;65.00
43858;DHT22;29507;51.284;5.758;2023-05-18T15:37:15;18.80;65.10
43858;DHT22;29507;51.284;5.758;2023-05-18T15:39:41;18.60;65.00
43858;DHT22;29507;51.284;5.758;2023-05-18T15:42:07;18.40;65.10
43858;DHT22;29507;51.284;5.758;2023-05-18T15:44:32;18.20;66.40
43858;DHT22;29507;51.284;5.758;2023-05-18T15:46:58;18.10;66.30
43858;DHT22;29507;51.284;5.758;2023-05-18T15:49:25;17.90;66.90
43858;DHT22;29507;51.284;5.758;2023-05-18T15:51:50;17.70;68.10
43858;DHT22;29507;51.284;5.758;2023-05-18T15:54:16;17.70;68.60
43858;DHT22;29507;51.284;5.758;2023-05-18T15:56:42;17.70;66.30
43858;DHT22;29507;51.284;5.758;2023-05-18T15:59:08;17.70;66.80
43858;DHT22;29507;51.284;5.758;2023-05-18T16:01:34;17.80;66.60